Time;durP1;ratioP1;P1;durP2;ratioP2;P2;SDS_P1;SDS_P2;PMS_P1;PMS_P2;Temp;Humidity;BMP_temperature;BMP_pressure;BME280_temperature;BME280_humidity;BME280_pressure;Samples;Min_cycle;Max_cycle;Signal;HPM_P1;HPM_P2
2023/11/02 00:01:50;;;;;;;7.10;2.30;;;;;;;9.50;79.00;98438.68;105629;1257;61052;-27
2023/11/02 00:04:17;;;;;;;3.30;2.20;;;;;;;9.62;77.93;98438.04;105391;1264;61100;-27
2023/11/02 00:06:46;;;;;;;3.80;2.40;;;;;;;9.45;77.90;98439.80;105590;1258;73057;-27
2023/11/02 00:09:34;;;;;;;5.10;2.10;;;;;;;9.23;78.53;98442.61;105620;1257;74899;-27
2023/11/02 00:12:11;;;;;;;3.20;2.60;;;;;;;8.98;79.57;98443.45;105530;1258;72478;-27
2023/11/02 00:14:51;;;;;;;3.20;2.30;;;;;;;8.76;79.98;98440.25;105596;1260;61659;-27
2023/11/02 00:17:44;;;;;;;4.20;2.10;;;;;;;8.61;81.12;98436.47;105366;1257;61080;-27
2023/11/02 00:20:20;;;;;;;3.50;1.80;;;;;;;9.11;81.02;98440.64;105440;1263;73808;-27
2023/11/02 00:22:48;;;;;;;3.00;2.40;;;;;;;9.55;78.94;98442.78;105543;1257;74186;-27
2023/11/02 00:25:33;;;;;;;3.50;2.50;;;;;;;9.54;78.24;98446.13;105635;1260;72431;-27
2023/11/02 00:28:00;;;;;;;3.60;2.40;;;;;;;9.38;78.31;98444.08;105626;1257;61167;-27
2023/11/02 00:30:27;;;;;;;4.80;2.60;;;;;;;9.15;78.95;98449.98;105610;1259;61166;-27
2023/11/02 00:32:54;;;;;;;5.40;2.70;;;;;;;8.94;79.50;98453.61;105503;1257;71475;-26
2023/11/02 00:35:22;;;;;;;4.00;2.50;;;;;;;8.76;79.99;98453.96;105537;1263;73365;-27
2023/11/02 00:37:49;;;;;;;6.30;2.10;;;;;;;8.62;80.72;98459.79;105485;1263;72407;-26
2023/11/02 00:40:16;;;;;;;3.00;2.00;;;;;;;9.09;80.54;98456.22;105497;1258;61169;-27
2023/11/02 00:42:43;;;;;;;4.00;2.30;;;;;;;9.63;78.67;98455.82;105390;1260;61111;-27
2023/11/02 00:45:09;;;;;;;4.50;2.40;;;;;;;9.69;78.04;98453.37;105428;1263;73892;-27
2023/11/02 00:47:36;;;;;;;3.60;2.70;;;;;;;9.52;78.11;98452.97;105564;1257;74263;-27
2023/11/02 00:50:04;;;;;;;4.90;2.60;;;;;;;9.31;78.49;98457.95;105487;1257;73162;-27
2023/11/02 00:52:31;;;;;;;5.20;2.40;;;;;;;9.08;79.74;98456.63;105489;1263;61168;-27
2023/11/02 00:54:59;;;;;;;9.90;3.20;;;;;;;8.90;80.42;98458.33;105590;1260;61169;-27
2023/11/02 00:57:36;;;;;;;3.40;1.80;;;;;;;8.73;82.18;98457.46;105312;1265;73754;-27
2023/11/02 01:00:04;;;;;;;3.00;2.20;;;;;;;9.19;81.67;98456.05;105303;1257;73204;-27
2023/11/02 01:02:35;;;;;;;4.50;2.50;;;;;;;9.70;79.54;98450.55;105442;1264;71517;-28
2023/11/02 01:05:04;;;;;;;4.90;2.40;;;;;;;9.80;78.36;98447.89;105455;1257;61154;-27
2023/11/02 01:07:33;;;;;;;4.50;3.00;;;;;;;9.65;78.26;98447.31;105314;1264;61139;-27
2023/11/02 01:10:02;;;;;;;6.10;3.20;;;;;;;9.42;78.89;98445.12;105641;1257;74382;-27
2023/11/02 01:12:33;;;;;;;4.40;3.00;;;;;;;9.18;80.07;98445.45;105294;1258;74362;-26
2023/11/02 01:15:00;;;;;;;5.10;3.40;;;;;;;8.92;81.45;98438.98;105539;1257;72687;-27
2023/11/02 01:17:32;;;;;;;5.20;2.70;;;;;;;8.84;82.05;98435.85;105545;1257;61151;-27
2023/11/02 01:20:10;;;;;;;5.10;2.20;;;;;;;9.31;81.68;98431.17;105631;1260;61157;-27
2023/11/02 01:22:58;;;;;;;5.20;2.50;;;;;;;9.90;79.65;98428.70;105541;1257;73811;-27
2023/11/02 01:25:27;;;;;;;3.00;2.60;;;;;;;9.88;78.16;98424.48;105522;1258;74446;-31
2023/11/02 01:28:00;;;;;;;6.10;3.00;;;;;;;9.74;78.42;98417.42;105227;1257;71189;-27
2023/11/02 01:30:36;;;;;;;;;;;;;;;9.55;78.89;98418.54;105571;1258;61151;-27
2023/11/02 01:33:38;;;;;;;5.20;3.30;;;;;;;9.33;79.70;98438.13;105619;1260;61103;-27
2023/11/02 01:36:06;;;;;;;5.60;3.50;;;;;;;9.07;80.70;98448.59;105606;1257;73855;-27
2023/11/02 01:38:33;;;;;;;5.40;2.40;;;;;;;8.89;81.77;98450.44;105577;1262;74253;-27
2023/11/02 01:41:10;;;;;;;4.90;2.40;;;;;;;9.28;81.61;98446.98;105553;1257;72651;-27
2023/11/02 01:44:00;;;;;;;4.90;3.20;;;;;;;9.73;79.74;98442.48;105182;1258;61227;-27
2023/11/02 01:46:34;;;;;;;6.90;3.60;;;;;;;9.74;79.18;98443.39;105154;1257;61140;-27
2023/11/02 01:49:07;;;;;;;;;;;;;;;9.51;79.57;98446.41;105263;1263;72452;-27
2023/11/02 01:51:37;;;;;;;5.90;3.80;;;;;;;9.23;80.13;98453.66;105309;1264;74217;-26
2023/11/02 01:54:13;;;;;;;7.70;4.60;;;;;;;8.96;81.13;98447.30;105265;1263;71271;-27
2023/11/02 01:56:48;;;;;;;5.50;3.80;;;;;;;8.59;84.21;98443.92;105094;1263;61090;-27
2023/11/02 01:59:27;;;;;;;5.90;3.80;;;;;;;8.54;85.61;98447.09;105139;1264;61182;-27
2023/11/02 02:02:08;;;;;;;6.10;3.60;;;;;;;9.11;83.40;98459.32;105112;1257;72670;-27
2023/11/02 02:05:10;;;;;;;4.80;3.60;;;;;;;9.24;82.06;98459.98;105146;1264;74312;-27
2023/11/02 02:07:47;;;;;;;6.40;4.10;;;;;;;9.09;81.58;98464.20;105149;1258;72254;-27
2023/11/02 02:10:21;;;;;;;5.80;4.00;;;;;;;8.86;82.30;98459.83;105473;1257;61273;-27
2023/11/02 02:12:52;;;;;;;8.00;4.80;;;;;;;8.58;84.67;98454.55;105514;1262;61128;-28
2023/11/02 02:15:31;;;;;;;4.40;3.00;;;;;;;8.42;85.64;98453.23;105268;1264;74391;-27
2023/11/02 02:18:12;;;;;;;4.30;3.00;;;;;;;8.96;84.94;98448.83;105136;1263;74422;-28
2023/11/02 02:20:42;;;;;;;6.90;4.00;;;;;;;9.42;82.34;98441.16;105415;1258;72743;-27
2023/11/02 02:23:37;;;;;;;6.90;4.20;;;;;;;9.46;81.85;98442.00;105110;1264;61186;-28
2023/11/02 02:26:14;;;;;;;8.10;4.20;;;;;;;9.20;82.47;98445.99;105597;1257;61183;-27
2023/11/02 02:28:47;;;;;;;6.30;4.50;;;;;;;9.03;82.49;98440.64;105571;1257;73686;-27
2023/11/02 02:31:39;;;;;;;5.20;4.00;;;;;;;8.86;82.56;98441.38;105511;1259;74282;-27
2023/11/02 02:34:38;;;;;;;4.40;3.20;;;;;;;8.67;83.10;98436.20;105540;1259;73231;-27
2023/11/02 02:37:15;;;;;;;6.60;4.10;;;;;;;9.22;82.63;98436.96;105042;1263;61173;-27
2023/11/02 02:39:44;;;;;;;8.10;4.50;;;;;;;9.32;81.91;98438.83;105306;1263;61209;-27
2023/11/02 02:42:13;;;;;;;6.60;4.40;;;;;;;9.21;82.40;98438.56;105467;1257;73854;-27
2023/11/02 02:44:41;;;;;;;6.10;3.80;;;;;;;9.02;82.72;98439.35;105410;1257;74097;-28
2023/11/02 02:47:08;;;;;;;9.50;4.80;;;;;;;8.79;83.62;98433.67;105562;1257;72473;-27
2023/11/02 02:49:38;;;;;;;6.20;4.50;;;;;;;8.50;85.51;98432.14;105172;1256;61268;-27
2023/11/02 02:52:08;;;;;;;5.80;3.50;;;;;;;8.39;86.19;98435.67;105135;1264;61220;-27
2023/11/02 02:54:36;;;;;;;4.00;2.90;;;;;;;8.88;85.57;98433.22;105174;1256;72533;-27
2023/11/02 02:57:03;;;;;;;4.50;3.60;;;;;;;9.46;82.93;98434.02;105356;1260;74404;-27
2023/11/02 02:59:30;;;;;;;6.30;3.60;;;;;;;9.58;81.56;98428.66;105130;1257;72671;-28
2023/11/02 03:05:25;;;;;;;6.20;4.10;;;;;;;9.07;82.17;98428.54;105635;1256;61160;-27
2023/11/02 03:07:55;;;;;;;6.00;4.30;;;;;;;8.80;83.10;98432.34;105569;1258;74094;-27
2023/11/02 03:10:22;;;;;;;4.60;3.40;;;;;;;8.51;85.37;98428.48;105127;1262;74424;-27
2023/11/02 03:12:49;;;;;;;6.90;3.20;;;;;;;8.80;85.79;98427.45;105125;1258;73262;-27
2023/11/02 03:15:17;;;;;;;6.20;4.20;;;;;;;9.29;83.26;98420.77;105276;1257;61167;-27
2023/11/02 03:18:05;;;;;;;7.60;4.30;;;;;;;9.18;83.36;98423.42;105118;1264;62489;-27
2023/11/02 03:20:33;;;;;;;7.20;4.30;;;;;;;8.92;84.28;98425.58;105235;1257;73661;-27
2023/11/02 03:23:32;;;;;;;5.50;4.60;;;;;;;8.75;84.56;98428.11;105431;1257;73365;-27
2023/11/02 03:26:06;;;;;;;7.60;4.60;;;;;;;8.39;86.66;98422.52;105307;1257;72713;-28
2023/11/02 03:28:47;;;;;;;7.20;4.20;;;;;;;8.24;87.10;98427.76;105111;1257;61793;-27
2023/11/02 03:31:31;;;;;;;6.40;3.80;;;;;;;8.70;86.57;98422.58;105485;1257;61137;-27
2023/11/02 03:34:00;;;;;;;6.30;4.00;;;;;;;9.17;83.93;98421.77;105512;1258;73786;-27
2023/11/02 03:36:57;;;;;;;7.20;4.70;;;;;;;9.01;83.86;98420.21;105569;1257;73434;-27
2023/11/02 03:39:36;;;;;;;9.00;5.20;;;;;;;8.60;85.47;98417.38;105270;1257;71288;-27
2023/11/02 03:42:37;;;;;;;8.00;4.70;;;;;;;8.15;88.17;98416.48;105280;1259;61060;-27
2023/11/02 03:45:08;;;;;;;8.40;4.60;;;;;;;7.83;89.83;98417.32;105482;1262;61187;-28
2023/11/02 03:47:44;;;;;;;6.30;4.30;;;;;;;7.97;88.82;98418.11;105250;1258;73908;-27
2023/11/02 03:50:26;;;;;;;7.00;4.60;;;;;;;8.48;86.86;98415.42;105135;1263;74150;-27
2023/11/02 03:53:11;;;;;;;7.40;4.70;;;;;;;8.55;85.59;98414.84;105129;1263;72541;-27
2023/11/02 03:55:51;;;;;;;7.70;6.00;;;;;;;8.22;86.97;98411.64;105350;1256;61150;-27
2023/11/02 03:58:30;;;;;;;8.40;6.00;;;;;;;7.86;88.74;98406.92;105484;1261;61164;-27
2023/11/02 04:01:16;;;;;;;12.20;5.20;;;;;;;7.59;89.97;98408.36;105387;1257;73577;-27
2023/11/02 04:03:44;;;;;;;6.70;4.60;;;;;;;7.50;90.90;98406.83;105546;1257;74115;-27
2023/11/02 04:06:16;;;;;;;6.40;4.70;;;;;;;7.96;89.30;98404.41;105508;1257;71236;-27
2023/11/02 04:08:43;;;;;;;7.00;4.70;;;;;;;8.08;88.21;98406.56;105537;1257;61097;-27
2023/11/02 04:11:29;;;;;;;7.50;4.80;;;;;;;7.96;88.10;98402.13;105416;1259;61173;-28
2023/11/02 04:13:59;;;;;;;8.50;6.20;;;;;;;7.64;89.46;98406.08;105524;1257;73848;-27
2023/11/02 04:16:28;;;;;;;6.20;4.20;;;;;;;7.41;90.60;98409.09;105097;1262;74882;-27
2023/11/02 04:18:55;;;;;;;11.30;5.00;;;;;;;7.66;89.81;98405.67;105199;1257;72534;-27
2023/11/02 04:21:22;;;;;;;6.80;4.30;;;;;;;7.82;88.35;98399.79;105503;1258;61140;-28
2023/11/02 04:23:49;;;;;;;8.60;5.50;;;;;;;7.57;89.75;98401.42;105310;1260;61225;-27
2023/11/02 04:26:16;;;;;;;8.10;5.10;;;;;;;7.35;90.86;98405.38;105337;1257;74371;-27
2023/11/02 04:28:43;;;;;;;9.60;5.60;;;;;;;7.11;91.82;98405.98;105366;1256;74304;-27
2023/11/02 04:31:10;;;;;;;7.60;4.70;;;;;;;7.06;92.54;98408.12;105322;1257;72490;-27
2023/11/02 04:33:36;;;;;;;11.30;5.90;;;;;;;7.40;90.77;98411.25;105330;1260;61556;-27
2023/11/02 04:36:04;;;;;;;7.20;5.30;;;;;;;7.45;89.63;98412.87;105369;1257;61096;-27
2023/11/02 04:38:31;;;;;;;9.20;6.00;;;;;;;7.40;89.72;98409.51;105295;1258;73595;-27
2023/11/02 04:40:58;;;;;;;10.20;6.70;;;;;;;7.23;89.92;98411.35;105404;1257;74352;-27
2023/11/02 04:43:25;;;;;;;9.60;5.60;;;;;;;7.01;91.48;98411.98;105613;1256;72656;-28
2023/11/02 04:45:52;;;;;;;10.10;6.30;;;;;;;7.29;90.63;98410.17;105627;1256;61201;-27
2023/11/02 04:48:20;;;;;;;10.00;5.80;;;;;;;7.54;88.79;98415.95;105558;1260;61632;-27
2023/11/02 04:50:52;;;;;;;9.90;6.70;;;;;;;7.45;88.78;98421.02;105563;1261;73845;-27
2023/11/02 04:53:21;;;;;;;14.60;6.70;;;;;;;7.20;89.90;98424.62;105294;1258;73339;-27
2023/11/02 04:55:49;;;;;;;6.00;3.80;;;;;;;7.00;90.71;98424.33;105609;1257;72738;-27
2023/11/02 04:58:16;;;;;;;9.50;6.00;;;;;;;7.04;91.52;98429.55;105487;1257;61115;-27
2023/11/02 05:00:43;;;;;;;8.90;5.40;;;;;;;7.13;90.96;98432.16;105478;1256;61109;-27
2023/11/02 05:03:10;;;;;;;13.60;7.70;;;;;;;6.93;91.51;98430.52;105184;1257;73818;-27
2023/11/02 05:05:36;;;;;;;10.80;6.90;;;;;;;6.77;92.17;98429.29;105451;1258;74312;-27
2023/11/02 05:08:08;;;;;;;11.30;5.70;;;;;;;6.59;93.08;98431.19;105353;1258;73197;-27
2023/11/02 05:10:35;;;;;;;8.20;5.20;;;;;;;6.69;93.12;98434.35;105164;1262;61150;-28
2023/11/02 05:13:02;;;;;;;9.10;5.20;;;;;;;7.08;90.35;98434.58;105374;1260;61144;-27
2023/11/02 05:15:29;;;;;;;13.70;5.60;;;;;;;7.03;89.66;98433.37;105348;1257;73825;-27
2023/11/02 05:17:57;;;;;;;11.10;6.40;;;;;;;6.84;90.52;98433.95;105197;1262;74263;-27
2023/11/02 05:20:25;;;;;;;8.70;6.30;;;;;;;6.56;92.08;98433.98;105322;1257;72483;-27
2023/11/02 05:22:52;;;;;;;10.00;5.20;;;;;;;6.38;93.18;98433.26;105155;1262;61753;-27
2023/11/02 05:25:19;;;;;;;8.90;5.50;;;;;;;6.68;92.30;98438.06;105347;1260;61186;-27
2023/11/02 05:27:46;;;;;;;12.20;5.50;;;;;;;7.03;89.73;98443.91;105351;1258;73655;-27
2023/11/02 05:30:13;;;;;;;10.50;6.00;;;;;;;6.99;89.22;98445.27;105348;1257;74346;-27
2023/11/02 05:32:40;;;;;;;5.30;4.10;;;;;;;6.90;89.54;98450.54;105316;1260;72624;-27
2023/11/02 05:35:09;;;;;;;12.30;6.10;;;;;;;6.75;89.76;98447.45;105394;1257;61055;-27
2023/11/02 05:37:36;;;;;;;4.40;3.50;;;;;;;6.59;90.29;98448.58;105358;1257;61091;-27
2023/11/02 05:40:05;;;;;;;6.80;4.70;;;;;;;6.95;89.49;98454.33;105511;1257;72781;-27
2023/11/02 05:42:32;;;;;;;8.80;4.90;;;;;;;7.45;87.18;98454.34;105528;1261;74118;-27
2023/11/02 05:45:01;;;;;;;8.10;5.20;;;;;;;7.44;86.00;98453.19;105517;1255;73184;-27
2023/11/02 05:47:29;;;;;;;7.30;5.10;;;;;;;7.21;87.09;98451.73;105272;1256;61205;-27
2023/11/02 05:49:55;;;;;;;9.20;5.70;;;;;;;6.98;88.16;98448.40;105596;1253;61157;-27
2023/11/02 05:52:22;;;;;;;9.30;6.10;;;;;;;6.70;89.58;98447.27;105598;1254;73754;-27
2023/11/02 05:54:49;;;;;;;6.30;3.40;;;;;;;6.63;90.37;98443.98;105586;1256;74796;-27
2023/11/02 05:57:16;;;;;;;10.80;5.00;;;;;;;7.09;88.91;98443.45;105568;1254;72495;-27
2023/11/02 05:59:43;;;;;;;7.20;4.50;;;;;;;7.67;86.39;98444.55;105719;1253;61058;-27
2023/11/02 06:02:10;;;;;;;8.50;4.80;;;;;;;7.69;85.15;98442.98;105587;1252;61134;-27
2023/11/02 06:04:37;;;;;;;7.80;5.40;;;;;;;7.50;85.33;98441.00;105805;1254;74348;-28
2023/11/02 06:07:04;;;;;;;7.90;5.30;;;;;;;7.28;86.27;98442.56;105873;1254;74238;-27
2023/11/02 06:09:31;;;;;;;7.70;5.80;;;;;;;7.09;87.56;98442.27;105613;1254;72683;-27
2023/11/02 06:11:58;;;;;;;7.40;3.90;;;;;;;7.01;87.97;98442.34;105666;1252;61110;-27
2023/11/02 06:14:25;;;;;;;7.60;4.20;;;;;;;7.00;88.07;98445.33;105644;1259;61292;-27
2023/11/02 06:16:52;;;;;;;7.40;4.30;;;;;;;7.59;86.69;98451.67;105547;1254;73829;-27
2023/11/02 06:19:19;;;;;;;6.80;4.50;;;;;;;8.12;83.84;98448.58;105581;1255;74301;-27
2023/11/02 06:21:48;;;;;;;6.50;4.50;;;;;;;8.30;82.94;98447.45;105841;1254;72614;-27
2023/11/02 06:24:15;;;;;;;8.60;5.10;;;;;;;8.15;82.36;98445.54;105683;1254;61205;-27
2023/11/02 06:26:42;;;;;;;7.60;4.80;;;;;;;7.99;83.02;98444.90;105554;1253;61166;-28
2023/11/02 06:29:10;;;;;;;6.30;4.50;;;;;;;7.90;83.33;98448.73;105843;1254;73703;-27
2023/11/02 06:31:37;;;;;;;6.50;4.50;;;;;;;7.80;83.77;98454.34;105708;1254;74381;-27
2023/11/02 06:34:04;;;;;;;5.20;3.80;;;;;;;7.70;84.40;98456.04;105600;1256;71642;-26
2023/11/02 06:36:31;;;;;;;6.10;3.40;;;;;;;8.14;83.56;98449.80;105572;1256;61041;-27
2023/11/02 06:38:58;;;;;;;8.70;4.10;;;;;;;8.51;80.87;98453.56;105572;1254;61134;-27
2023/11/02 06:41:25;;;;;;;6.00;4.10;;;;;;;8.60;80.29;98453.85;105390;1254;73510;-27
2023/11/02 06:43:52;;;;;;;6.10;3.70;;;;;;;8.68;79.97;98453.94;105532;1257;73340;-27
2023/11/02 06:46:19;;;;;;;7.00;4.60;;;;;;;8.63;79.46;98456.54;105784;1257;72534;-27
2023/11/02 06:48:46;;;;;;;7.90;4.50;;;;;;;8.57;79.66;98456.23;105842;1256;61037;-27
2023/11/02 06:51:13;;;;;;;7.20;3.80;;;;;;;8.46;79.77;98463.30;105727;1256;61719;-27
2023/11/02 06:53:40;;;;;;;6.10;4.00;;;;;;;8.52;80.49;98463.64;105883;1254;73626;-27
2023/11/02 06:56:08;;;;;;;6.10;4.50;;;;;;;8.65;79.59;98457.96;105718;1259;74942;-27
2023/11/02 06:58:35;;;;;;;8.60;4.50;;;;;;;8.65;79.98;98463.84;105626;1259;72754;-27
2023/11/02 07:01:02;;;;;;;10.50;5.60;;;;;;;8.75;79.54;98458.90;105607;1254;61073;-27
2023/11/02 07:03:29;;;;;;;6.80;4.90;;;;;;;8.91;78.88;98464.83;105658;1252;61148;-27
2023/11/02 07:05:56;;;;;;;9.20;5.60;;;;;;;9.02;78.46;98460.46;105712;1254;74346;-27
2023/11/02 07:08:23;;;;;;;7.00;4.90;;;;;;;9.11;77.46;98464.24;105714;1259;74280;-27
2023/11/02 07:10:51;;;;;;;9.30;5.50;;;;;;;9.24;77.80;98464.49;105892;1254;72673;-27
2023/11/02 07:13:19;;;;;;;6.40;4.20;;;;;;;9.39;76.89;98463.05;105820;1257;61159;-27
2023/11/02 07:15:46;;;;;;;10.70;4.70;;;;;;;9.44;76.37;98464.06;105884;1256;61095;-27
2023/11/02 07:18:13;;;;;;;6.90;4.60;;;;;;;9.59;75.76;98467.22;105872;1254;73613;-27
2023/11/02 07:20:40;;;;;;;8.10;4.60;;;;;;;9.69;75.11;98470.33;105785;1254;74118;-27
2023/11/02 07:23:08;;;;;;;8.20;4.10;;;;;;;9.95;75.34;98470.02;105937;1255;72673;-27
2023/11/02 07:25:38;;;;;;;7.50;4.40;;;;;;;10.13;73.88;98470.83;105875;1254;61026;-27
2023/11/02 07:28:05;;;;;;;7.20;4.40;;;;;;;10.30;73.92;98470.97;105844;1257;61137;-27
2023/11/02 07:30:31;;;;;;;9.20;4.80;;;;;;;10.23;73.24;98469.98;105846;1254;73849;-27
2023/11/02 07:32:58;;;;;;;9.50;6.00;;;;;;;10.18;73.11;98472.52;105764;1254;74306;-27
2023/11/02 07:35:26;;;;;;;8.80;4.90;;;;;;;10.24;73.66;98469.52;105575;1254;72545;-27
2023/11/02 07:37:53;;;;;;;15.70;7.20;;;;;;;10.46;73.16;98468.48;105458;1254;61090;-27
2023/11/02 07:40:20;;;;;;;10.70;6.50;;;;;;;10.62;72.30;98470.22;105632;1256;61160;-27
2023/11/02 07:42:47;;;;;;;10.90;6.50;;;;;;;10.70;71.86;98466.13;105864;1254;73797;-26
2023/11/02 07:45:14;;;;;;;10.00;6.00;;;;;;;10.88;70.89;98465.91;105828;1255;74333;-27
2023/11/02 07:47:42;;;;;;;10.30;5.50;;;;;;;10.99;70.22;98466.46;105659;1254;72766;-27
2023/11/02 07:50:10;;;;;;;7.30;5.60;;;;;;;11.21;69.92;98466.41;105472;1255;61118;-27
2023/11/02 07:52:39;;;;;;;8.60;5.10;;;;;;;11.44;68.50;98469.46;105431;1253;61131;-27
2023/11/02 07:55:08;;;;;;;12.20;5.80;;;;;;;11.55;68.11;98466.16;105576;1254;73833;-27
2023/11/02 07:57:35;;;;;;;6.50;4.70;;;;;;;11.81;67.63;98469.47;105535;1254;74065;-27
2023/11/02 08:00:03;;;;;;;9.50;5.60;;;;;;;12.02;66.79;98468.17;105812;1256;72655;-27
2023/11/02 08:02:37;;;;;;;7.20;4.50;;;;;;;12.21;66.36;98464.58;105702;1259;61124;-27
2023/11/02 08:05:05;;;;;;;7.60;5.10;;;;;;;12.39;64.44;98465.95;105879;1256;61092;-27
2023/11/02 08:07:32;;;;;;;7.60;5.40;;;;;;;12.56;65.42;98464.16;105739;1259;72664;-28
2023/11/02 08:09:59;;;;;;;8.40;6.30;;;;;;;12.73;63.85;98461.86;105840;1254;74868;-26
2023/11/02 08:12:26;;;;;;;7.30;4.70;;;;;;;12.79;63.20;98462.06;105876;1254;72662;-27
2023/11/02 08:14:53;;;;;;;7.80;4.40;;;;;;;12.85;62.88;98459.20;103283;1256;3285171;-27
2023/11/02 08:17:23;;;;;;;6.30;3.60;;;;;;;12.96;62.77;98461.11;105803;1253;61166;-27
2023/11/02 08:20:11;;;;;;;6.70;3.30;;;;;;;13.06;62.20;98459.66;105706;1254;73775;-27
2023/11/02 08:22:38;;;;;;;4.80;3.20;;;;;;;13.03;61.04;98460.89;105251;1259;74197;-27
2023/11/02 08:25:06;;;;;;;7.80;3.90;;;;;;;13.02;61.67;98461.19;105140;1260;72745;-27
2023/11/02 08:27:56;;;;;;;6.80;4.90;;;;;;;13.15;61.22;98460.70;104891;1261;61150;-27
2023/11/02 08:30:25;;;;;;;5.60;4.10;;;;;;;13.41;61.12;98460.91;105074;1260;61625;-27
2023/11/02 08:32:52;;;;;;;6.50;4.20;;;;;;;13.44;60.43;98462.55;105089;1261;73847;-27
2023/11/02 08:35:21;;;;;;;6.30;4.00;;;;;;;13.69;59.90;98461.89;104981;1267;73305;-27
2023/11/02 08:37:48;;;;;;;5.90;3.80;;;;;;;13.64;59.06;98464.73;105071;1260;71440;-27
2023/11/02 08:40:20;;;;;;;6.60;3.60;;;;;;;13.68;59.08;98463.55;104982;1260;61235;-27
2023/11/02 08:42:48;;;;;;;4.90;3.50;;;;;;;13.94;58.27;98454.62;105213;1265;61121;-27
2023/11/02 08:45:16;;;;;;;6.60;3.30;;;;;;;14.01;57.56;98451.39;105207;1263;74376;-27
2023/11/02 08:47:43;;;;;;;3.60;3.10;;;;;;;14.07;57.17;98449.98;104791;1261;74413;-27
2023/11/02 08:50:11;;;;;;;5.00;3.40;;;;;;;14.07;56.99;98455.69;105193;1260;72841;-27
2023/11/02 08:52:39;;;;;;;6.30;3.30;;;;;;;14.08;56.98;98456.70;105028;1260;61191;-27
2023/11/02 08:55:06;;;;;;;6.30;5.70;;;;;;;14.03;56.96;98457.52;105133;1265;61280;-27
2023/11/02 08:57:33;;;;;;;5.30;3.90;;;;;;;14.14;56.73;98452.88;104916;1262;72187;-27
2023/11/02 09:00:01;;;;;;;9.70;5.60;;;;;;;14.33;56.25;98447.86;105489;1254;74298;-27
2023/11/02 09:02:31;;;;;;;5.40;3.40;;;;;;;14.51;55.84;98444.45;105871;1257;72795;-27
2023/11/02 09:04:59;;;;;;;3.70;2.80;;;;;;;14.64;55.08;98439.80;105891;1254;61045;-27
2023/11/02 09:07:28;;;;;;;4.10;2.90;;;;;;;14.69;54.59;98437.80;105869;1256;61112;-27
2023/11/02 09:09:55;;;;;;;5.30;3.20;;;;;;;14.94;54.29;98434.94;105602;1254;73579;-27
2023/11/02 09:12:22;;;;;;;12.80;11.50;;;;;;;15.18;53.61;98433.91;105597;1254;74367;-27
2023/11/02 09:14:49;;;;;;;5.40;3.50;;;;;;;15.32;53.17;98433.39;105646;1254;73170;-27
2023/11/02 09:17:16;;;;;;;5.70;3.00;;;;;;;15.20;52.43;98432.81;105546;1254;61110;-27
2023/11/02 09:19:43;;;;;;;4.90;2.60;;;;;;;15.25;52.65;98431.77;105589;1256;61105;-27
2023/11/02 09:22:10;;;;;;;3.60;2.70;;;;;;;15.12;52.47;98430.65;105889;1254;73496;-27
2023/11/02 09:24:38;;;;;;;3.50;2.80;;;;;;;15.32;52.43;98425.22;105855;1254;75609;-28
2023/11/02 09:27:05;;;;;;;3.80;3.40;;;;;;;15.45;51.82;98418.14;105728;1254;73334;-27
2023/11/02 09:29:32;;;;;;;5.30;2.80;;;;;;;15.67;51.70;98415.73;105821;1255;61055;-27
2023/11/02 09:31:59;;;;;;;4.10;2.50;;;;;;;15.91;50.79;98411.29;105798;1256;61149;-27
2023/11/02 09:34:33;;;;;;;3.50;2.70;;;;;;;15.71;50.69;98408.05;105524;1254;75019;-27
2023/11/02 09:37:01;;;;;;;4.40;2.70;;;;;;;15.50;51.38;98408.34;105582;1254;74215;-27
2023/11/02 09:39:29;;;;;;;4.20;2.00;;;;;;;15.22;51.83;98405.86;105656;1254;72442;-27
2023/11/02 09:41:57;;;;;;;2.50;1.90;;;;;;;15.24;51.57;98403.16;105792;1256;62030;-27
2023/11/02 09:44:23;;;;;;;5.00;2.70;;;;;;;15.41;51.72;98402.48;105886;1256;61340;-27
2023/11/02 09:46:54;;;;;;;2.40;2.10;;;;;;;15.66;50.11;98399.23;105632;1254;74313;-27
2023/11/02 09:49:21;;;;;;;3.50;1.80;;;;;;;15.88;49.80;98395.20;105922;1254;74103;-27
2023/11/02 09:51:48;;;;;;;2.70;2.10;;;;;;;15.74;49.54;98396.06;105875;1254;72879;-27
2023/11/02 09:54:15;;;;;;;2.80;1.80;;;;;;;15.71;49.83;98397.06;105848;1254;61176;-27
2023/11/02 09:56:42;;;;;;;3.60;1.60;;;;;;;15.89;49.06;98395.72;105731;1256;61176;-27
2023/11/02 09:59:09;;;;;;;3.30;2.70;;;;;;;15.94;48.51;98392.96;105565;1254;73819;-27
2023/11/02 10:01:36;;;;;;;2.70;2.50;;;;;;;15.78;48.56;98388.20;105591;1254;74374;-27
2023/11/02 10:04:04;;;;;;;3.00;2.10;;;;;;;15.59;48.81;98389.98;105542;1254;73908;-27
2023/11/02 10:06:32;;;;;;;3.10;2.40;;;;;;;15.58;48.42;98386.93;105562;1254;61112;-27
2023/11/02 10:08:59;;;;;;;2.80;2.40;;;;;;;15.86;48.33;98381.77;105530;1256;61093;-27
2023/11/02 10:11:27;;;;;;;5.70;2.00;;;;;;;15.90;48.15;98382.50;105657;1254;73188;-27
2023/11/02 10:13:56;;;;;;;1.90;1.70;;;;;;;15.96;47.75;98376.63;105292;1261;75020;-27
2023/11/02 10:16:23;;;;;;;4.40;2.90;;;;;;;16.07;47.28;98380.49;105551;1254;73112;-27
2023/11/02 10:18:51;;;;;;;2.60;1.80;;;;;;;16.05;47.13;98381.91;105547;1254;61154;-28
2023/11/02 10:21:19;;;;;;;3.90;2.80;;;;;;;16.16;46.57;98377.79;105854;1252;61589;-27
2023/11/02 10:23:51;;;;;;;1.80;1.50;;;;;;;15.90;46.46;98367.29;105570;1258;74307;-27
2023/11/02 10:26:18;;;;;;;3.80;1.80;;;;;;;16.12;46.86;98368.34;105620;1254;73539;-27
2023/11/02 10:28:45;;;;;;;4.20;2.30;;;;;;;16.17;46.49;98368.66;105775;1256;73584;-27
2023/11/02 10:31:17;;;;;;;2.40;1.30;;;;;;;16.17;46.82;98363.88;105630;1254;61484;-28
2023/11/02 10:33:48;;;;;;;1.70;0.90;;;;;;;16.55;45.74;98359.92;105246;1261;61435;-27
2023/11/02 10:36:17;;;;;;;4.20;1.50;;;;;;;16.73;45.61;98364.95;105359;1257;72948;-27
2023/11/02 10:38:45;;;;;;;1.80;1.00;;;;;;;16.78;44.55;98355.55;105550;1254;73238;-27
2023/11/02 10:41:18;;;;;;;2.70;1.10;;;;;;;16.44;44.47;98360.45;105807;1259;74002;-27
2023/11/02 10:43:45;;;;;;;;;;;;;;;16.07;45.64;98355.70;105682;1254;61161;-27
2023/11/02 10:46:12;;;;;;;2.40;1.30;;;;;;;16.11;45.89;98354.63;105834;1253;61834;-27
2023/11/02 10:48:39;;;;;;;2.40;1.20;;;;;;;16.16;45.29;98352.80;105306;1254;73260;-27
2023/11/02 10:51:14;;;;;;;3.40;1.50;;;;;;;16.14;45.53;98352.33;105587;1254;74038;-27
2023/11/02 10:54:02;;;;;;;3.80;1.40;;;;;;;16.52;45.39;98350.77;105604;1255;72784;-27
2023/11/02 10:56:40;;;;;;;8.00;2.70;;;;;;;16.55;45.66;98352.35;105355;1254;61236;-27
2023/11/02 10:59:10;;;;;;;2.60;1.30;;;;;;;16.61;46.25;98354.98;105633;1254;61154;-27
2023/11/02 11:01:38;;;;;;;3.20;1.70;;;;;;;16.69;46.01;98350.70;105480;1254;74173;-27
2023/11/02 11:04:10;;;;;;;2.40;1.30;;;;;;;16.70;46.26;98350.78;105678;1254;74612;-29
2023/11/02 11:06:39;;;;;;;4.90;3.00;;;;;;;16.42;45.42;98348.38;105743;1254;74109;-27
2023/11/02 11:09:06;;;;;;;1.80;1.40;;;;;;;16.36;45.07;98342.67;105671;1254;61242;-27
2023/11/02 11:11:34;;;;;;;2.00;1.00;;;;;;;16.40;45.94;98345.97;105678;1260;61148;-26
2023/11/02 11:14:01;;;;;;;2.30;1.40;;;;;;;16.31;44.71;98335.33;105659;1259;73285;-27
2023/11/02 11:16:29;;;;;;;3.00;1.60;;;;;;;16.14;45.43;98332.20;105681;1254;73609;-27
2023/11/02 11:18:56;;;;;;;3.00;1.50;;;;;;;15.78;46.53;98328.46;105696;1257;73168;-27
2023/11/02 11:21:24;;;;;;;2.40;1.00;;;;;;;16.00;45.38;98323.50;105844;1256;61056;-27
2023/11/02 11:23:53;;;;;;;1.90;1.10;;;;;;;16.04;45.37;98322.97;105758;1252;61690;-27
2023/11/02 11:26:20;;;;;;;3.10;1.70;;;;;;;15.82;45.84;98322.88;105563;1256;72939;-27
2023/11/02 11:28:47;;;;;;;2.90;1.40;;;;;;;15.61;45.96;98326.45;105592;1254;73620;-27
2023/11/02 11:31:55;;;;;;;2.80;1.70;;;;;;;15.26;46.63;98324.40;105678;1254;72308;-27
2023/11/02 11:34:22;;;;;;;2.70;1.10;;;;;;;15.17;47.90;98322.98;105783;1252;61702;-27
2023/11/02 11:36:49;;;;;;;3.60;1.20;;;;;;;15.54;47.44;98319.54;105680;1259;61732;-27
2023/11/02 11:39:34;;;;;;;2.20;1.60;;;;;;;15.69;46.98;98316.64;105868;1254;74257;-27
2023/11/02 11:42:01;;;;;;;2.70;1.60;;;;;;;15.92;46.78;98309.66;105639;1259;74172;-27
2023/11/02 11:44:28;;;;;;;1.20;1.00;;;;;;;15.84;46.13;98309.34;105674;1254;71983;-27
2023/11/02 11:46:56;;;;;;;3.20;1.30;;;;;;;15.31;46.75;98310.05;105834;1255;61058;-27
2023/11/02 11:49:36;;;;;;;1.40;1.20;;;;;;;15.06;46.81;98306.73;105726;1254;61132;-27